sensor_id;sensor_type;location;lat;lon;timestamp;pressure;altitude;pressure_sealevel;temperature;humidity
22653;BME280;11493;43.344;26.226;2023-04-19T00:00:43;98889.91;;;10.71;100.00
22653;BME280;11493;43.344;26.226;2023-04-19T00:03:10;98893.13;;;10.73;100.00
22653;BME280;11493;43.344;26.226;2023-04-19T00:05:38;98892.16;;;10.77;100.00
22653;BME280;11493;43.344;26.226;2023-04-19T00:08:05;98892.78;;;10.83;100.00
22653;BME280;11493;43.344;26.226;2023-04-19T00:10:32;98892.31;;;10.81;100.00
22653;BME280;11493;43.344;26.226;2023-04-19T00:12:59;98883.56;;;10.79;100.00
22653;BME280;11493;43.344;26.226;2023-04-19T00:15:26;98889.06;;;10.88;100.00
22653;BME280;11493;43.344;26.226;2023-04-19T00:17:52;98877.41;;;10.82;100.00
22653;BME280;11493;43.344;26.226;2023-04-19T00:20:20;98890.38;;;10.73;100.00
22653;BME280;11493;43.344;26.226;2023-04-19T00:22:47;98888.44;;;10.73;100.00
22653;BME280;11493;43.344;26.226;2023-04-19T00:25:14;98874.88;;;10.60;100.00
22653;BME280;11493;43.344;26.226;2023-04-19T00:27:41;98879.72;;;10.63;100.00
22653;BME280;11493;43.344;26.226;2023-04-19T00:30:08;98879.06;;;10.48;100.00
22653;BME280;11493;43.344;26.226;2023-04-19T00:32:35;98884.91;;;10.56;100.00
22653;BME280;11493;43.344;26.226;2023-04-19T00:35:02;98878.75;;;10.41;100.00
22653;BME280;11493;43.344;26.226;2023-04-19T00:37:30;98889.09;;;10.44;100.00
22653;BME280;11493;43.344;26.226;2023-04-19T00:39:57;98877.97;;;10.32;100.00
22653;BME280;11493;43.344;26.226;2023-04-19T00:42:25;98883.00;;;10.30;100.00
22653;BME280;11493;43.344;26.226;2023-04-19T00:44:52;98878.78;;;10.24;100.00
22653;BME280;11493;43.344;26.226;2023-04-19T00:47:19;98870.19;;;10.17;100.00
22653;BME280;11493;43.344;26.226;2023-04-19T00:49:46;98880.56;;;10.20;100.00
22653;BME280;11493;43.344;26.226;2023-04-19T00:52:15;98877.00;;;10.19;100.00
22653;BME280;11493;43.344;26.226;2023-04-19T00:54:42;98881.22;;;10.26;100.00
22653;BME280;11493;43.344;26.226;2023-04-19T00:57:12;98877.13;;;10.14;100.00
22653;BME280;11493;43.344;26.226;2023-04-19T00:59:39;98877.13;;;10.14;100.00
22653;BME280;11493;43.344;26.226;2023-04-19T01:02:06;98879.44;;;10.21;100.00
22653;BME280;11493;43.344;26.226;2023-04-19T01:04:33;98884.94;;;10.21;100.00
22653;BME280;11493;43.344;26.226;2023-04-19T01:07:01;98866.94;;;10.15;100.00
22653;BME280;11493;43.344;26.226;2023-04-19T01:09:28;98865.81;;;10.16;100.00
22653;BME280;11493;43.344;26.226;2023-04-19T01:11:56;98867.63;;;10.20;100.00
22653;BME280;11493;43.344;26.226;2023-04-19T01:14:23;98874.25;;;10.19;100.00
22653;BME280;11493;43.344;26.226;2023-04-19T01:16:50;98873.75;;;10.17;100.00
22653;BME280;11493;43.344;26.226;2023-04-19T01:19:17;98857.91;;;10.14;100.00
22653;BME280;11493;43.344;26.226;2023-04-19T01:21:44;98863.22;;;10.11;100.00
22653;BME280;11493;43.344;26.226;2023-04-19T01:24:11;98861.13;;;10.08;100.00
22653;BME280;11493;43.344;26.226;2023-04-19T01:26:39;98863.56;;;10.09;100.00
22653;BME280;11493;43.344;26.226;2023-04-19T01:29:06;98836.69;;;9.98;100.00
22653;BME280;11493;43.344;26.226;2023-04-19T01:31:33;98857.56;;;10.07;100.00
22653;BME280;11493;43.344;26.226;2023-04-19T01:34:02;98856.09;;;10.01;100.00
22653;BME280;11493;43.344;26.226;2023-04-19T01:36:29;98828.78;;;9.96;100.00
22653;BME280;11493;43.344;26.226;2023-04-19T01:38:56;98853.84;;;10.03;100.00
22653;BME280;11493;43.344;26.226;2023-04-19T01:41:23;98855.63;;;10.08;100.00
22653;BME280;11493;43.344;26.226;2023-04-19T01:43:52;98844.47;;;10.04;100.00
22653;BME280;11493;43.344;26.226;2023-04-19T01:46:19;98859.03;;;10.05;100.00
22653;BME280;11493;43.344;26.226;2023-04-19T01:48:47;98856.44;;;10.00;100.00
22653;BME280;11493;43.344;26.226;2023-04-19T01:51:14;98854.81;;;9.99;100.00
22653;BME280;11493;43.344;26.226;2023-04-19T01:53:42;98848.00;;;9.87;100.00
22653;BME280;11493;43.344;26.226;2023-04-19T01:56:09;98849.94;;;9.78;100.00
22653;BME280;11493;43.344;26.226;2023-04-19T01:58:36;98850.09;;;9.82;100.00
22653;BME280;11493;43.344;26.226;2023-04-19T02:01:04;98854.16;;;9.84;100.00
22653;BME280;11493;43.344;26.226;2023-04-19T02:03:31;98842.50;;;9.79;100.00
22653;BME280;11493;43.344;26.226;2023-04-19T02:05:58;98845.75;;;9.81;100.00
22653;BME280;11493;43.344;26.226;2023-04-19T02:08:25;98833.28;;;9.83;100.00
22653;BME280;11493;43.344;26.226;2023-04-19T02:10:53;98840.41;;;9.76;100.00
22653;BME280;11493;43.344;26.226;2023-04-19T02:13:20;98843.47;;;9.74;100.00
22653;BME280;11493;43.344;26.226;2023-04-19T02:15:47;98836.34;;;9.73;100.00
22653;BME280;11493;43.344;26.226;2023-04-19T02:18:21;98828.75;;;9.70;100.00
22653;BME280;11493;43.344;26.226;2023-04-19T02:20:50;98848.97;;;9.74;100.00
22653;BME280;11493;43.344;26.226;2023-04-19T02:23:17;98835.88;;;9.71;100.00
22653;BME280;11493;43.344;26.226;2023-04-19T02:25:44;98834.88;;;9.67;100.00
22653;BME280;11493;43.344;26.226;2023-04-19T02:28:13;98839.41;;;9.72;100.00
22653;BME280;11493;43.344;26.226;2023-04-19T02:30:40;98838.13;;;9.69;100.00
22653;BME280;11493;43.344;26.226;2023-04-19T02:33:07;98838.78;;;9.75;100.00
22653;BME280;11493;43.344;26.226;2023-04-19T02:35:34;98836.19;;;9.78;100.00
22653;BME280;11493;43.344;26.226;2023-04-19T02:38:02;98828.59;;;9.75;100.00
22653;BME280;11493;43.344;26.226;2023-04-19T02:40:29;98826.34;;;9.77;100.00
22653;BME280;11493;43.344;26.226;2023-04-19T02:42:57;98826.19;;;9.82;100.00
22653;BME280;11493;43.344;26.226;2023-04-19T02:45:24;98826.97;;;9.74;100.00
22653;BME280;11493;43.344;26.226;2023-04-19T02:47:53;98827.97;;;9.78;100.00
22653;BME280;11493;43.344;26.226;2023-04-19T02:50:21;98830.03;;;9.73;100.00
22653;BME280;11493;43.344;26.226;2023-04-19T02:52:49;98823.59;;;9.69;100.00
22653;BME280;11493;43.344;26.226;2023-04-19T02:55:18;98823.25;;;9.70;100.00
22653;BME280;11493;43.344;26.226;2023-04-19T02:57:48;98832.97;;;9.76;100.00
22653;BME280;11493;43.344;26.226;2023-04-19T03:00:15;98806.97;;;9.65;100.00
22653;BME280;11493;43.344;26.226;2023-04-19T03:02:53;98823.75;;;9.72;100.00
22653;BME280;11493;43.344;26.226;2023-04-19T03:05:22;98826.34;;;9.77;100.00
22653;BME280;11493;43.344;26.226;2023-04-19T03:07:49;98832.16;;;9.76;100.00
22653;BME280;11493;43.344;26.226;2023-04-19T03:10:16;98839.91;;;9.82;100.00
22653;BME280;11493;43.344;26.226;2023-04-19T03:12:44;98832.47;;;9.74;100.00
22653;BME280;11493;43.344;26.226;2023-04-19T03:15:10;98841.03;;;9.73;100.00
22653;BME280;11493;43.344;26.226;2023-04-19T03:17:37;98843.47;;;9.74;100.00
22653;BME280;11493;43.344;26.226;2023-04-19T03:20:05;98842.34;;;9.75;100.00
22653;BME280;11493;43.344;26.226;2023-04-19T03:22:35;98829.25;;;9.72;100.00
22653;BME280;11493;43.344;26.226;2023-04-19T03:25:03;98834.44;;;9.82;100.00
22653;BME280;11493;43.344;26.226;2023-04-19T03:27:33;98839.75;;;9.79;100.00
22653;BME280;11493;43.344;26.226;2023-04-19T03:30:04;98835.56;;;9.81;100.00
22653;BME280;11493;43.344;26.226;2023-04-19T03:32:31;98841.22;;;9.76;100.00
22653;BME280;11493;43.344;26.226;2023-04-19T03:34:59;98838.94;;;9.78;100.00
22653;BME280;11493;43.344;26.226;2023-04-19T03:37:26;98847.03;;;9.83;100.00
22653;BME280;11493;43.344;26.226;2023-04-19T03:39:53;98852.53;;;9.83;100.00
22653;BME280;11493;43.344;26.226;2023-04-19T03:42:26;98835.06;;;9.79;100.00
22653;BME280;11493;43.344;26.226;2023-04-19T03:45:15;98821.34;;;9.79;100.00
22653;BME280;11493;43.344;26.226;2023-04-19T03:47:45;98837.19;;;9.82;100.00
22653;BME280;11493;43.344;26.226;2023-04-19T03:50:13;98823.09;;;9.75;100.00
22653;BME280;11493;43.344;26.226;2023-04-19T03:52:43;98826.50;;;9.72;100.00
22653;BME280;11493;43.344;26.226;2023-04-19T03:55:12;98837.97;;;9.74;100.00
22653;BME280;11493;43.344;26.226;2023-04-19T03:57:39;98829.72;;;9.74;100.00
22653;BME280;11493;43.344;26.226;2023-04-19T04:00:35;98832.13;;;9.67;100.00
22653;BME280;11493;43.344;26.226;2023-04-19T04:03:02;98832.31;;;9.71;100.00
22653;BME280;11493;43.344;26.226;2023-04-19T04:05:29;98827.63;;;9.71;100.00
22653;BME280;11493;43.344;26.226;2023-04-19T04:07:56;98835.53;;;9.73;100.00
22653;BME280;11493;43.344;26.226;2023-04-19T04:10:24;98836.66;;;9.72;100.00
22653;BME280;11493;43.344;26.226;2023-04-19T04:12:51;98829.88;;;9.69;100.00
22653;BME280;11493;43.344;26.226;2023-04-19T04:15:25;98837.63;;;9.67;100.00
22653;BME280;11493;43.344;26.226;2023-04-19T04:17:53;98836.03;;;9.66;100.00
22653;BME280;11493;43.344;26.226;2023-04-19T04:20:20;98847.34;;;9.73;100.00
22653;BME280;11493;43.344;26.226;2023-04-19T04:22:49;98843.47;;;9.74;100.00
22653;BME280;11493;43.344;26.226;2023-04-19T04:25:19;98837.97;;;9.83;100.00
22653;BME280;11493;43.344;26.226;2023-04-19T04:27:50;98835.22;;;9.74;100.00
22653;BME280;11493;43.344;26.226;2023-04-19T04:30:20;98844.13;;;9.80;100.00
22653;BME280;11493;43.344;26.226;2023-04-19T04:32:47;98837.50;;;9.81;100.00
22653;BME280;11493;43.344;26.226;2023-04-19T04:35:17;98843.16;;;9.84;100.00
22653;BME280;11493;43.344;26.226;2023-04-19T04:38:01;98840.56;;;9.88;100.00
22653;BME280;11493;43.344;26.226;2023-04-19T04:40:49;98847.84;;;9.93;100.00
22653;BME280;11493;43.344;26.226;2023-04-19T04:43:17;98835.41;;;9.95;100.00
22653;BME280;11493;43.344;26.226;2023-04-19T04:45:44;98850.91;;;9.91;100.00
22653;BME280;11493;43.344;26.226;2023-04-19T04:48:11;98828.28;;;9.85;100.00
22653;BME280;11493;43.344;26.226;2023-04-19T04:50:38;98849.97;;;9.96;100.00
22653;BME280;11493;43.344;26.226;2023-04-19T04:53:05;98849.00;;;10.00;100.00
22653;BME280;11493;43.344;26.226;2023-04-19T04:55:33;98848.34;;;10.03;100.00
22653;BME280;11493;43.344;26.226;2023-04-19T04:58:01;98838.97;;;10.04;100.00
22653;BME280;11493;43.344;26.226;2023-04-19T05:00:50;98839.94;;;10.08;100.00
22653;BME280;11493;43.344;26.226;2023-04-19T05:03:18;98838.97;;;10.13;100.00
22653;BME280;11493;43.344;26.226;2023-04-19T05:05:52;98839.78;;;10.13;100.00
22653;BME280;11493;43.344;26.226;2023-04-19T05:08:19;98847.72;;;10.32;100.00
22653;BME280;11493;43.344;26.226;2023-04-19T05:10:47;98836.72;;;10.32;100.00
22653;BME280;11493;43.344;26.226;2023-04-19T05:13:14;98846.94;;;10.32;100.00
22653;BME280;11493;43.344;26.226;2023-04-19T05:15:42;98849.84;;;10.35;100.00
22653;BME280;11493;43.344;26.226;2023-04-19T05:18:08;98841.59;;;10.35;100.00
22653;BME280;11493;43.344;26.226;2023-04-19T05:20:36;98848.19;;;10.43;100.00
22653;BME280;11493;43.344;26.226;2023-04-19T05:23:10;98847.22;;;10.47;100.00
22653;BME280;11493;43.344;26.226;2023-04-19T05:25:37;98846.22;;;10.52;100.00
22653;BME280;11493;43.344;26.226;2023-04-19T05:28:04;98863.06;;;10.59;100.00
22653;BME280;11493;43.344;26.226;2023-04-19T05:30:41;98851.25;;;10.59;100.00
22653;BME280;11493;43.344;26.226;2023-04-19T05:33:08;98851.38;;;10.62;100.00
22653;BME280;11493;43.344;26.226;2023-04-19T05:35:35;98850.91;;;10.51;100.00
22653;BME280;11493;43.344;26.226;2023-04-19T05:38:02;98854.81;;;10.50;100.00
22653;BME280;11493;43.344;26.226;2023-04-19T05:40:29;98865.47;;;10.61;100.00
22653;BME280;11493;43.344;26.226;2023-04-19T05:42:57;98874.22;;;10.63;100.00
22653;BME280;11493;43.344;26.226;2023-04-19T05:45:25;98868.88;;;10.58;100.00
22653;BME280;11493;43.344;26.226;2023-04-19T05:47:52;98870.50;;;10.50;100.00
22653;BME280;11493;43.344;26.226;2023-04-19T05:50:42;98870.00;;;10.57;100.00
22653;BME280;11493;43.344;26.226;2023-04-19T05:53:24;98863.38;;;10.49;100.00
22653;BME280;11493;43.344;26.226;2023-04-19T05:55:52;98875.19;;;10.49;100.00
22653;BME280;11493;43.344;26.226;2023-04-19T05:58:19;98877.47;;;10.47;100.00
22653;BME280;11493;43.344;26.226;2023-04-19T06:00:46;98853.03;;;10.46;100.00
22653;BME280;11493;43.344;26.226;2023-04-19T06:03:17;98877.63;;;10.60;100.00
22653;BME280;11493;43.344;26.226;2023-04-19T06:05:44;98875.66;;;10.60;100.00
22653;BME280;11493;43.344;26.226;2023-04-19T06:08:11;98865.47;;;10.61;100.00
22653;BME280;11493;43.344;26.226;2023-04-19T06:10:41;98868.38;;;10.64;100.00
22653;BME280;11493;43.344;26.226;2023-04-19T06:13:21;98877.44;;;10.73;100.00
22653;BME280;11493;43.344;26.226;2023-04-19T06:15:48;98869.97;;;10.74;100.00
22653;BME280;11493;43.344;26.226;2023-04-19T06:18:16;98872.25;;;10.80;100.00
22653;BME280;11493;43.344;26.226;2023-04-19T06:20:46;98876.59;;;10.90;100.00
22653;BME280;11493;43.344;26.226;2023-04-19T06:23:13;98882.41;;;10.89;100.00
22653;BME280;11493;43.344;26.226;2023-04-19T06:25:40;98873.34;;;10.88;100.00
22653;BME280;11493;43.344;26.226;2023-04-19T06:28:07;98872.38;;;10.93;100.00
22653;BME280;11493;43.344;26.226;2023-04-19T06:30:34;98880.31;;;10.94;100.00
22653;BME280;11493;43.344;26.226;2023-04-19T06:33:02;98878.34;;;11.03;100.00
22653;BME280;11493;43.344;26.226;2023-04-19T06:35:29;98873.97;;;11.02;100.00
22653;BME280;11493;43.344;26.226;2023-04-19T06:37:57;98882.22;;;11.02;100.00
22653;BME280;11493;43.344;26.226;2023-04-19T06:40:25;98873.16;;;11.02;100.00
22653;BME280;11493;43.344;26.226;2023-04-19T06:42:52;98876.56;;;10.99;100.00
22653;BME280;11493;43.344;26.226;2023-04-19T06:45:19;98872.81;;;11.03;100.00
22653;BME280;11493;43.344;26.226;2023-04-19T06:47:46;98870.41;;;11.02;100.00
22653;BME280;11493;43.344;26.226;2023-04-19T06:50:13;98883.00;;;11.11;100.00
22653;BME280;11493;43.344;26.226;2023-04-19T06:52:40;98868.28;;;11.07;100.00
22653;BME280;11493;43.344;26.226;2023-04-19T06:55:08;98884.28;;;11.14;100.00
22653;BME280;11493;43.344;26.226;2023-04-19T06:57:35;98874.28;;;11.01;100.00
22653;BME280;11493;43.344;26.226;2023-04-19T07:00:03;98888.78;;;11.18;100.00
22653;BME280;11493;43.344;26.226;2023-04-19T07:02:32;98886.25;;;11.13;100.00
22653;BME280;11493;43.344;26.226;2023-04-19T07:04:59;98889.13;;;11.17;100.00
22653;BME280;11493;43.344;26.226;2023-04-19T07:07:26;98872.31;;;11.10;100.00
22653;BME280;11493;43.344;26.226;2023-04-19T07:09:53;98891.88;;;11.17;100.00
22653;BME280;11493;43.344;26.226;2023-04-19T07:12:20;98901.09;;;11.21;100.00
22653;BME280;11493;43.344;26.226;2023-04-19T07:14:47;98906.44;;;11.17;100.00
22653;BME280;11493;43.344;26.226;2023-04-19T07:17:14;98904.47;;;11.27;100.00
22653;BME280;11493;43.344;26.226;2023-04-19T07:19:46;98908.81;;;11.36;100.00
22653;BME280;11493;43.344;26.226;2023-04-19T07:22:14;98903.63;;;11.35;100.00
22653;BME280;11493;43.344;26.226;2023-04-19T07:24:42;98907.53;;;11.34;100.00
22653;BME280;11493;43.344;26.226;2023-04-19T07:27:10;98901.53;;;11.32;100.00
22653;BME280;11493;43.344;26.226;2023-04-19T07:29:37;98901.16;;;11.42;100.00
22653;BME280;11493;43.344;26.226;2023-04-19T07:32:05;98912.63;;;11.52;100.00
22653;BME280;11493;43.344;26.226;2023-04-19T07:34:32;98901.75;;;11.56;100.00
22653;BME280;11493;43.344;26.226;2023-04-19T07:36:59;98915.41;;;11.44;100.00
22653;BME280;11493;43.344;26.226;2023-04-19T07:39:26;98899.38;;;11.46;100.00
22653;BME280;11493;43.344;26.226;2023-04-19T07:41:54;98917.16;;;11.57;100.00
22653;BME280;11493;43.344;26.226;2023-04-19T07:44:21;98924.28;;;11.58;100.00
22653;BME280;11493;43.344;26.226;2023-04-19T07:46:48;98916.00;;;11.58;100.00
22653;BME280;11493;43.344;26.226;2023-04-19T07:49:15;98917.47;;;11.56;100.00
22653;BME280;11493;43.344;26.226;2023-04-19T07:51:42;98912.31;;;11.54;100.00
22653;BME280;11493;43.344;26.226;2023-04-19T07:54:09;98902.75;;;11.51;100.00
22653;BME280;11493;43.344;26.226;2023-04-19T07:56:36;98919.56;;;11.59;100.00
22653;BME280;11493;43.344;26.226;2023-04-19T07:59:04;98916.75;;;11.76;100.00
22653;BME280;11493;43.344;26.226;2023-04-19T08:01:35;98911.47;;;11.62;100.00
22653;BME280;11493;43.344;26.226;2023-04-19T08:04:03;98924.38;;;11.70;100.00
22653;BME280;11493;43.344;26.226;2023-04-19T08:06:30;98916.44;;;11.69;100.00
22653;BME280;11493;43.344;26.226;2023-04-19T08:08:58;98925.06;;;11.67;100.00
22653;BME280;11493;43.344;26.226;2023-04-19T08:11:26;98921.63;;;11.79;100.00
22653;BME280;11493;43.344;26.226;2023-04-19T08:13:53;98913.34;;;11.79;100.00
22653;BME280;11493;43.344;26.226;2023-04-19T08:16:40;98918.53;;;11.80;100.00
22653;BME280;11493;43.344;26.226;2023-04-19T08:19:26;98925.00;;;11.84;100.00
22653;BME280;11493;43.344;26.226;2023-04-19T08:21:53;98927.47;;;11.69;100.00
22653;BME280;11493;43.344;26.226;2023-04-19T08:24:21;98925.34;;;11.74;100.00
22653;BME280;11493;43.344;26.226;2023-04-19T08:26:47;98922.59;;;11.74;100.00
22653;BME280;11493;43.344;26.226;2023-04-19T08:29:20;98928.88;;;11.83;100.00
22653;BME280;11493;43.344;26.226;2023-04-19T08:31:48;98929.63;;;11.93;100.00
22653;BME280;11493;43.344;26.226;2023-04-19T08:34:15;98907.72;;;11.96;100.00
22653;BME280;11493;43.344;26.226;2023-04-19T08:36:42;98919.25;;;12.19;100.00
22653;BME280;11493;43.344;26.226;2023-04-19T08:39:26;98921.66;;;12.41;100.00
22653;BME280;11493;43.344;26.226;2023-04-19T08:42:04;98923.63;;;12.62;100.00
22653;BME280;11493;43.344;26.226;2023-04-19T08:44:50;98928.81;;;12.75;100.00
22653;BME280;11493;43.344;26.226;2023-04-19T08:47:39;98938.84;;;12.80;100.00
22653;BME280;11493;43.344;26.226;2023-04-19T08:50:26;98939.31;;;12.82;100.00
22653;BME280;11493;43.344;26.226;2023-04-19T08:53:05;98940.25;;;12.86;100.00
22653;BME280;11493;43.344;26.226;2023-04-19T08:55:50;98936.34;;;12.87;100.00
22653;BME280;11493;43.344;26.226;2023-04-19T08:58:38;98939.13;;;12.87;100.00
22653;BME280;11493;43.344;26.226;2023-04-19T09:01:25;98948.34;;;12.91;100.00
22653;BME280;11493;43.344;26.226;2023-04-19T09:04:07;98945.34;;;12.96;100.00
22653;BME280;11493;43.344;26.226;2023-04-19T09:06:57;98942.94;;;12.95;100.00
22653;BME280;11493;43.344;26.226;2023-04-19T09:09:29;98936.94;;;12.93;100.00
22653;BME280;11493;43.344;26.226;2023-04-19T09:11:59;98947.69;;;13.06;100.00
22653;BME280;11493;43.344;26.226;2023-04-19T09:14:27;98933.63;;;13.20;100.00
22653;BME280;11493;43.344;26.226;2023-04-19T09:17:11;98940.31;;;13.31;100.00
22653;BME280;11493;43.344;26.226;2023-04-19T09:19:48;98951.97;;;13.49;100.00
22653;BME280;11493;43.344;26.226;2023-04-19T09:22:15;98950.16;;;13.77;100.00
22653;BME280;11493;43.344;26.226;2023-04-19T09:24:43;98936.31;;;13.90;100.00
22653;BME280;11493;43.344;26.226;2023-04-19T09:29:58;98939.47;;;14.40;98.28
22653;BME280;11493;43.344;26.226;2023-04-19T09:32:26;98947.66;;;14.49;96.85
22653;BME280;11493;43.344;26.226;2023-04-19T09:34:58;98929.88;;;14.62;95.74
22653;BME280;11493;43.344;26.226;2023-04-19T09:37:26;98935.75;;;14.89;94.44
22653;BME280;11493;43.344;26.226;2023-04-19T09:39:56;98939.56;;;15.12;94.21
22653;BME280;11493;43.344;26.226;2023-04-19T09:42:23;98942.06;;;15.17;94.36
22653;BME280;11493;43.344;26.226;2023-04-19T09:45:10;98936.50;;;15.01;95.65
22653;BME280;11493;43.344;26.226;2023-04-19T09:47:40;98939.06;;;14.94;94.64
22653;BME280;11493;43.344;26.226;2023-04-19T09:50:08;98936.50;;;15.01;92.33
22653;BME280;11493;43.344;26.226;2023-04-19T09:52:49;98938.44;;;14.85;93.22
22653;BME280;11493;43.344;26.226;2023-04-19T09:55:18;98928.88;;;14.83;92.55
22653;BME280;11493;43.344;26.226;2023-04-19T09:57:48;98940.22;;;14.93;93.64
22653;BME280;11493;43.344;26.226;2023-04-19T10:00:16;98932.22;;;15.04;91.41
22653;BME280;11493;43.344;26.226;2023-04-19T10:02:43;98936.97;;;15.19;91.60
22653;BME280;11493;43.344;26.226;2023-04-19T10:05:17;98923.34;;;15.42;91.16
22653;BME280;11493;43.344;26.226;2023-04-19T10:07:48;98936.88;;;15.59;87.71
22653;BME280;11493;43.344;26.226;2023-04-19T10:10:16;98929.59;;;15.55;86.71
22653;BME280;11493;43.344;26.226;2023-04-19T10:12:48;98927.47;;;15.80;87.71
22653;BME280;11493;43.344;26.226;2023-04-19T10:15:20;98924.47;;;16.04;88.38
22653;BME280;11493;43.344;26.226;2023-04-19T10:17:48;98927.38;;;16.27;87.01
22653;BME280;11493;43.344;26.226;2023-04-19T10:23:12;98932.34;;;16.37;81.48
22653;BME280;11493;43.344;26.226;2023-04-19T10:25:39;98917.91;;;16.28;82.02
22653;BME280;11493;43.344;26.226;2023-04-19T10:28:06;98934.19;;;16.49;79.37
22653;BME280;11493;43.344;26.226;2023-04-19T10:30:32;98913.88;;;16.44;80.70
22653;BME280;11493;43.344;26.226;2023-04-19T10:33:00;98916.22;;;16.42;78.49
22653;BME280;11493;43.344;26.226;2023-04-19T10:35:35;98921.63;;;16.55;82.11
22653;BME280;11493;43.344;26.226;2023-04-19T10:38:13;98911.69;;;16.54;78.13
22653;BME280;11493;43.344;26.226;2023-04-19T10:43:23;98910.38;;;16.28;79.82
22653;BME280;11493;43.344;26.226;2023-04-19T10:45:51;98917.28;;;16.19;80.38
22653;BME280;11493;43.344;26.226;2023-04-19T10:53:43;98906.38;;;16.10;81.39
22653;BME280;11493;43.344;26.226;2023-04-19T10:56:11;98903.63;;;16.10;79.71
22653;BME280;11493;43.344;26.226;2023-04-19T10:59:18;98914.06;;;16.17;80.81
22653;BME280;11493;43.344;26.226;2023-04-19T11:01:56;98910.50;;;16.16;79.66
22653;BME280;11493;43.344;26.226;2023-04-19T11:07:04;98890.31;;;15.84;80.27
22653;BME280;11493;43.344;26.226;2023-04-19T11:09:37;98904.00;;;15.93;81.65
22653;BME280;11493;43.344;26.226;2023-04-19T11:12:13;98907.84;;;16.04;79.29
22653;BME280;11493;43.344;26.226;2023-04-19T11:14:53;98911.06;;;16.06;80.08
22653;BME280;11493;43.344;26.226;2023-04-19T11:17:25;98905.06;;;16.04;79.59
22653;BME280;11493;43.344;26.226;2023-04-19T11:19:58;98904.34;;;16.07;81.43
22653;BME280;11493;43.344;26.226;2023-04-19T11:25:11;98901.44;;;16.19;81.98
22653;BME280;11493;43.344;26.226;2023-04-19T11:27:40;98890.06;;;16.24;80.94
22653;BME280;11493;43.344;26.226;2023-04-19T11:30:12;98898.03;;;16.45;78.49
22653;BME280;11493;43.344;26.226;2023-04-19T11:32:53;98892.41;;;16.61;79.00
22653;BME280;11493;43.344;26.226;2023-04-19T11:35:22;98895.03;;;16.54;78.87
22653;BME280;11493;43.344;26.226;2023-04-19T11:37:51;98886.38;;;16.74;78.85
22653;BME280;11493;43.344;26.226;2023-04-19T11:40:20;98890.09;;;16.82;79.04
22653;BME280;11493;43.344;26.226;2023-04-19T11:42:57;98890.22;;;16.89;78.74
22653;BME280;11493;43.344;26.226;2023-04-19T11:47:59;98878.69;;;16.68;77.09
22653;BME280;11493;43.344;26.226;2023-04-19T11:52:57;98879.50;;;16.68;79.61
22653;BME280;11493;43.344;26.226;2023-04-19T11:55:24;98870.31;;;16.49;79.66
22653;BME280;11493;43.344;26.226;2023-04-19T11:57:52;98875.16;;;16.52;80.51
22653;BME280;11493;43.344;26.226;2023-04-19T12:00:26;98865.06;;;16.63;79.87
22653;BME280;11493;43.344;26.226;2023-04-19T12:02:54;98873.50;;;16.86;79.94
22653;BME280;11493;43.344;26.226;2023-04-19T12:05:22;98862.63;;;17.23;80.53
22653;BME280;11493;43.344;26.226;2023-04-19T12:08:04;98876.97;;;17.48;78.08
22653;BME280;11493;43.344;26.226;2023-04-19T12:10:31;98864.25;;;17.69;75.28
22653;BME280;11493;43.344;26.226;2023-04-19T12:12:58;98862.75;;;17.76;73.46
22653;BME280;11493;43.344;26.226;2023-04-19T12:15:45;98873.19;;;17.59;75.54
22653;BME280;11493;43.344;26.226;2023-04-19T12:18:13;98860.72;;;17.27;74.95
22653;BME280;11493;43.344;26.226;2023-04-19T12:20:45;98859.81;;;16.77;74.77
22653;BME280;11493;43.344;26.226;2023-04-19T12:23:13;98849.06;;;16.56;77.45
22653;BME280;11493;43.344;26.226;2023-04-19T12:25:43;98851.31;;;16.51;78.97
22653;BME280;11493;43.344;26.226;2023-04-19T12:28:10;98839.28;;;16.43;79.37
22653;BME280;11493;43.344;26.226;2023-04-19T12:30:38;98841.53;;;16.37;80.87
22653;BME280;11493;43.344;26.226;2023-04-19T12:33:06;98838.69;;;16.53;80.66
22653;BME280;11493;43.344;26.226;2023-04-19T12:35:34;98837.59;;;16.77;79.55
22653;BME280;11493;43.344;26.226;2023-04-19T12:38:01;98837.00;;;16.87;77.79
22653;BME280;11493;43.344;26.226;2023-04-19T12:40:29;98829.34;;;17.03;76.71
22653;BME280;11493;43.344;26.226;2023-04-19T12:42:56;98827.97;;;17.17;76.28
22653;BME280;11493;43.344;26.226;2023-04-19T12:45:23;98822.34;;;17.13;75.33
22653;BME280;11493;43.344;26.226;2023-04-19T12:47:50;98821.75;;;17.23;76.32
22653;BME280;11493;43.344;26.226;2023-04-19T12:50:18;98818.59;;;17.25;76.70
22653;BME280;11493;43.344;26.226;2023-04-19T12:52:45;98835.28;;;17.25;76.62
22653;BME280;11493;43.344;26.226;2023-04-19T12:55:11;98823.66;;;16.96;75.62
22653;BME280;11493;43.344;26.226;2023-04-19T12:57:38;98807.03;;;16.77;76.88
22653;BME280;11493;43.344;26.226;2023-04-19T13:00:06;98807.53;;;16.83;79.38
22653;BME280;11493;43.344;26.226;2023-04-19T13:02:33;98817.13;;;16.85;75.43
22653;BME280;11493;43.344;26.226;2023-04-19T13:05:01;98816.00;;;16.90;75.42
22653;BME280;11493;43.344;26.226;2023-04-19T13:07:30;98820.53;;;16.98;76.12
22653;BME280;11493;43.344;26.226;2023-04-19T13:09:58;98813.16;;;17.09;75.35
22653;BME280;11493;43.344;26.226;2023-04-19T13:12:24;98805.94;;;17.04;75.25
22653;BME280;11493;43.344;26.226;2023-04-19T13:14:52;98812.34;;;17.08;76.25
22653;BME280;11493;43.344;26.226;2023-04-19T13:17:19;98804.81;;;17.09;76.49
22653;BME280;11493;43.344;26.226;2023-04-19T13:19:46;98790.31;;;16.96;77.57
22653;BME280;11493;43.344;26.226;2023-04-19T13:22:13;98795.78;;;16.70;84.73